Etusivu
METAR-TAF:

METAR-TAF

Lentoasemat :

Ngaoundéré, Kamerun

Leveyspiiri: 07-21N, Pituuspiiri: 013-34E, korkeus merenpinnasta: 1114 m

Tämänhetkinen sää

Tämä raportti tehtiin 14 tuntia ja 4 minuuttia sitten, kello 15.00 UTC
Tuuli 8 kn pohjoisesta/koillisesta
Lämpötila 32°C
Kosteus 23%
Ilmanpaine 1013 hPa
Näkyvyys: 9000 m

METAR: FKKN 281500Z 02008KT 9000 NSC 32/08 Q1013

Aika: 06:04 (05:04 UTC)


TAF: puuttuu

Säähavainnot ja -ennusteet yli 4000 lentoasemalta (METAR- ja TAF-raportit).

Käytössä olevat sääasemat on merkitty karttaan keltaisilla ja punaisilla pisteillä.

Aseta hiiri pisteen päälle nähdäksesi sääaseman nimen.

Klikkaa sitten nähdäksesi säähavainnot ja -ennusteet.

Kartan vaihtaminen: klikkaa mustalla rastilla varustettuja vihreitä pisteitä, niin voit zoomata sisään; viivalla varustettua vihreää pistettä, niin voit zoomata ulos tai vihreitä nuolia, niin pääset viereisille kartoille.


METAR-TAF: